sensor_id;sensor_type;location;lat;lon;timestamp;temperature;humidity
38592;DHT22;24356;48.460;11.450;2022-11-15T00:00:52;2.80;92.70
38592;DHT22;24356;48.460;11.450;2022-11-15T00:03:21;2.80;92.80
38592;DHT22;24356;48.460;11.450;2022-11-15T00:05:47;2.80;92.80
38592;DHT22;24356;48.460;11.450;2022-11-15T00:08:13;2.80;92.80
38592;DHT22;24356;48.460;11.450;2022-11-15T00:10:39;2.80;92.70
38592;DHT22;24356;48.460;11.450;2022-11-15T00:13:10;2.80;92.70
38592;DHT22;24356;48.460;11.450;2022-11-15T00:15:37;2.80;92.70
38592;DHT22;24356;48.460;11.450;2022-11-15T00:18:04;2.80;92.80
38592;DHT22;24356;48.460;11.450;2022-11-15T00:20:30;2.70;92.80
38592;DHT22;24356;48.460;11.450;2022-11-15T00:22:56;2.70;92.70
38592;DHT22;24356;48.460;11.450;2022-11-15T00:25:22;2.70;92.90
38592;DHT22;24356;48.460;11.450;2022-11-15T00:27:47;2.70;92.80
38592;DHT22;24356;48.460;11.450;2022-11-15T00:30:13;2.70;92.80
38592;DHT22;24356;48.460;11.450;2022-11-15T00:32:38;2.70;92.90
38592;DHT22;24356;48.460;11.450;2022-11-15T00:35:04;2.70;92.80
38592;DHT22;24356;48.460;11.450;2022-11-15T00:37:30;2.70;92.80
38592;DHT22;24356;48.460;11.450;2022-11-15T00:39:56;2.60;92.80
38592;DHT22;24356;48.460;11.450;2022-11-15T00:42:21;2.60;92.80
38592;DHT22;24356;48.460;11.450;2022-11-15T00:44:47;2.60;92.90
38592;DHT22;24356;48.460;11.450;2022-11-15T00:47:13;2.60;92.90
38592;DHT22;24356;48.460;11.450;2022-11-15T00:49:38;2.60;92.90
38592;DHT22;24356;48.460;11.450;2022-11-15T00:52:04;2.60;92.90
38592;DHT22;24356;48.460;11.450;2022-11-15T00:54:29;2.60;92.90
38592;DHT22;24356;48.460;11.450;2022-11-15T00:56:56;2.60;92.90
38592;DHT22;24356;48.460;11.450;2022-11-15T00:59:22;2.60;92.90
38592;DHT22;24356;48.460;11.450;2022-11-15T01:01:48;2.50;92.90
38592;DHT22;24356;48.460;11.450;2022-11-15T01:04:14;2.50;92.90
38592;DHT22;24356;48.460;11.450;2022-11-15T01:06:39;2.50;92.80
38592;DHT22;24356;48.460;11.450;2022-11-15T01:09:05;2.50;92.90
38592;DHT22;24356;48.460;11.450;2022-11-15T01:11:30;2.50;92.90
38592;DHT22;24356;48.460;11.450;2022-11-15T01:13:56;2.50;92.80
38592;DHT22;24356;48.460;11.450;2022-11-15T01:16:21;2.50;92.90
38592;DHT22;24356;48.460;11.450;2022-11-15T01:18:47;2.50;92.90
38592;DHT22;24356;48.460;11.450;2022-11-15T01:21:16;2.50;92.90
38592;DHT22;24356;48.460;11.450;2022-11-15T01:23:42;2.40;92.90
38592;DHT22;24356;48.460;11.450;2022-11-15T01:26:11;2.40;92.90
38592;DHT22;24356;48.460;11.450;2022-11-15T01:28:41;2.40;92.90
38592;DHT22;24356;48.460;11.450;2022-11-15T01:31:11;2.40;92.90
38592;DHT22;24356;48.460;11.450;2022-11-15T01:33:37;2.40;92.90
38592;DHT22;24356;48.460;11.450;2022-11-15T01:36:07;2.40;92.80
38592;DHT22;24356;48.460;11.450;2022-11-15T01:38:34;2.40;92.80
38592;DHT22;24356;48.460;11.450;2022-11-15T01:41:00;2.40;92.80
38592;DHT22;24356;48.460;11.450;2022-11-15T01:43:28;2.30;92.80
38592;DHT22;24356;48.460;11.450;2022-11-15T01:46:00;2.30;92.80
38592;DHT22;24356;48.460;11.450;2022-11-15T01:48:32;2.30;92.80
38592;DHT22;24356;48.460;11.450;2022-11-15T01:51:01;2.30;92.80
38592;DHT22;24356;48.460;11.450;2022-11-15T01:53:29;2.30;92.90
38592;DHT22;24356;48.460;11.450;2022-11-15T01:55:55;2.30;92.90
38592;DHT22;24356;48.460;11.450;2022-11-15T01:58:22;2.30;92.90
38592;DHT22;24356;48.460;11.450;2022-11-15T02:00:48;2.30;93.00
38592;DHT22;24356;48.460;11.450;2022-11-15T02:03:15;2.20;92.90
38592;DHT22;24356;48.460;11.450;2022-11-15T02:05:41;2.20;93.00
38592;DHT22;24356;48.460;11.450;2022-11-15T02:08:08;2.20;92.90
38592;DHT22;24356;48.460;11.450;2022-11-15T02:10:45;2.20;92.90
38592;DHT22;24356;48.460;11.450;2022-11-15T02:13:12;2.20;92.90
38592;DHT22;24356;48.460;11.450;2022-11-15T02:15:56;2.20;92.90
38592;DHT22;24356;48.460;11.450;2022-11-15T02:18:37;2.20;92.90
38592;DHT22;24356;48.460;11.450;2022-11-15T02:37:42;2.10;92.80
38592;DHT22;24356;48.460;11.450;2022-11-15T02:42:55;2.10;92.90
38592;DHT22;24356;48.460;11.450;2022-11-15T02:45:46;2.10;92.80
38592;DHT22;24356;48.460;11.450;2022-11-15T02:48:15;2.10;92.90
38592;DHT22;24356;48.460;11.450;2022-11-15T02:50:42;2.10;92.90
38592;DHT22;24356;48.460;11.450;2022-11-15T02:53:09;2.10;92.90
38592;DHT22;24356;48.460;11.450;2022-11-15T02:55:41;2.10;92.80
38592;DHT22;24356;48.460;11.450;2022-11-15T03:01:36;2.00;92.90
38592;DHT22;24356;48.460;11.450;2022-11-15T03:06:42;2.00;92.90
38592;DHT22;24356;48.460;11.450;2022-11-15T03:11:58;2.00;92.90
38592;DHT22;24356;48.460;11.450;2022-11-15T03:15:28;2.00;92.90
38592;DHT22;24356;48.460;11.450;2022-11-15T03:17:37;1.90;92.90
38592;DHT22;24356;48.460;11.450;2022-11-15T03:20:06;1.90;92.90
38592;DHT22;24356;48.460;11.450;2022-11-15T03:22:36;2.00;92.90
38592;DHT22;24356;48.460;11.450;2022-11-15T03:25:06;1.90;92.90
38592;DHT22;24356;48.460;11.450;2022-11-15T03:27:38;1.90;92.90
38592;DHT22;24356;48.460;11.450;2022-11-15T03:30:07;1.90;92.90
38592;DHT22;24356;48.460;11.450;2022-11-15T03:32:59;1.90;92.90
38592;DHT22;24356;48.460;11.450;2022-11-15T03:35:30;1.90;92.90
38592;DHT22;24356;48.460;11.450;2022-11-15T03:40:39;1.90;92.90
38592;DHT22;24356;48.460;11.450;2022-11-15T03:43:35;1.90;93.00
38592;DHT22;24356;48.460;11.450;2022-11-15T03:46:07;1.90;92.90
38592;DHT22;24356;48.460;11.450;2022-11-15T03:48:41;1.90;93.10
38592;DHT22;24356;48.460;11.450;2022-11-15T03:51:09;1.90;93.10
38592;DHT22;24356;48.460;11.450;2022-11-15T03:53:37;1.80;93.10
38592;DHT22;24356;48.460;11.450;2022-11-15T03:56:02;1.80;92.90
38592;DHT22;24356;48.460;11.450;2022-11-15T03:58:28;1.80;92.90
38592;DHT22;24356;48.460;11.450;2022-11-15T04:00:54;1.80;92.80
38592;DHT22;24356;48.460;11.450;2022-11-15T04:03:19;1.80;92.90
38592;DHT22;24356;48.460;11.450;2022-11-15T04:05:45;1.80;92.90
38592;DHT22;24356;48.460;11.450;2022-11-15T04:08:11;1.80;92.80
38592;DHT22;24356;48.460;11.450;2022-11-15T04:10:36;1.80;92.80
38592;DHT22;24356;48.460;11.450;2022-11-15T04:13:02;1.80;92.80
38592;DHT22;24356;48.460;11.450;2022-11-15T04:15:28;1.80;92.80
38592;DHT22;24356;48.460;11.450;2022-11-15T04:17:56;1.80;92.90
38592;DHT22;24356;48.460;11.450;2022-11-15T04:20:24;1.70;92.90
38592;DHT22;24356;48.460;11.450;2022-11-15T04:23:28;1.70;92.90
38592;DHT22;24356;48.460;11.450;2022-11-15T04:26:19;1.70;92.90
38592;DHT22;24356;48.460;11.450;2022-11-15T04:28:46;1.70;92.90
38592;DHT22;24356;48.460;11.450;2022-11-15T04:31:30;1.70;92.90
38592;DHT22;24356;48.460;11.450;2022-11-15T04:34:00;1.70;92.90
38592;DHT22;24356;48.460;11.450;2022-11-15T04:36:26;1.70;92.90
38592;DHT22;24356;48.460;11.450;2022-11-15T04:39:10;1.70;92.80
38592;DHT22;24356;48.460;11.450;2022-11-15T04:41:35;1.70;92.90
38592;DHT22;24356;48.460;11.450;2022-11-15T04:44:01;1.60;92.80
38592;DHT22;24356;48.460;11.450;2022-11-15T04:46:27;1.60;92.90
38592;DHT22;24356;48.460;11.450;2022-11-15T04:48:53;1.60;92.90
38592;DHT22;24356;48.460;11.450;2022-11-15T04:51:19;1.60;92.90
38592;DHT22;24356;48.460;11.450;2022-11-15T04:53:45;1.60;92.80
38592;DHT22;24356;48.460;11.450;2022-11-15T04:56:11;1.60;93.00
38592;DHT22;24356;48.460;11.450;2022-11-15T04:58:37;1.60;92.90
38592;DHT22;24356;48.460;11.450;2022-11-15T05:01:13;1.60;92.90
38592;DHT22;24356;48.460;11.450;2022-11-15T05:03:41;1.60;93.00
38592;DHT22;24356;48.460;11.450;2022-11-15T05:06:25;1.60;92.90
38592;DHT22;24356;48.460;11.450;2022-11-15T05:08:51;1.60;92.90
38592;DHT22;24356;48.460;11.450;2022-11-15T05:11:16;1.50;92.90
38592;DHT22;24356;48.460;11.450;2022-11-15T05:13:42;1.60;93.00
38592;DHT22;24356;48.460;11.450;2022-11-15T05:16:08;1.50;92.90
38592;DHT22;24356;48.460;11.450;2022-11-15T05:18:34;1.50;92.90
38592;DHT22;24356;48.460;11.450;2022-11-15T05:21:04;1.50;92.90
38592;DHT22;24356;48.460;11.450;2022-11-15T05:23:30;1.50;92.90
38592;DHT22;24356;48.460;11.450;2022-11-15T05:25:59;1.50;92.90
38592;DHT22;24356;48.460;11.450;2022-11-15T05:28:25;1.50;92.80
38592;DHT22;24356;48.460;11.450;2022-11-15T05:30:50;1.50;92.80
38592;DHT22;24356;48.460;11.450;2022-11-15T05:33:17;1.50;92.80
38592;DHT22;24356;48.460;11.450;2022-11-15T05:35:48;1.50;92.90
38592;DHT22;24356;48.460;11.450;2022-11-15T05:38:16;1.50;92.80
38592;DHT22;24356;48.460;11.450;2022-11-15T05:40:41;1.50;92.90
38592;DHT22;24356;48.460;11.450;2022-11-15T05:43:07;1.40;92.80
38592;DHT22;24356;48.460;11.450;2022-11-15T05:45:33;1.40;92.80
38592;DHT22;24356;48.460;11.450;2022-11-15T05:48:01;1.40;92.80
38592;DHT22;24356;48.460;11.450;2022-11-15T05:50:29;1.40;92.80
38592;DHT22;24356;48.460;11.450;2022-11-15T05:52:55;1.40;92.90
38592;DHT22;24356;48.460;11.450;2022-11-15T05:55:21;1.40;92.80
38592;DHT22;24356;48.460;11.450;2022-11-15T05:57:46;1.40;92.80
38592;DHT22;24356;48.460;11.450;2022-11-15T06:00:12;1.40;92.80
38592;DHT22;24356;48.460;11.450;2022-11-15T06:02:38;1.40;92.80
38592;DHT22;24356;48.460;11.450;2022-11-15T06:05:04;1.40;92.80
38592;DHT22;24356;48.460;11.450;2022-11-15T06:07:30;1.40;92.80
38592;DHT22;24356;48.460;11.450;2022-11-15T06:09:56;1.30;92.80
38592;DHT22;24356;48.460;11.450;2022-11-15T06:12:21;1.30;92.80
38592;DHT22;24356;48.460;11.450;2022-11-15T06:14:47;1.30;92.90
38592;DHT22;24356;48.460;11.450;2022-11-15T06:17:12;1.30;92.80
38592;DHT22;24356;48.460;11.450;2022-11-15T06:19:38;1.30;92.80
38592;DHT22;24356;48.460;11.450;2022-11-15T06:22:04;1.30;92.80
38592;DHT22;24356;48.460;11.450;2022-11-15T06:24:29;1.30;92.80
38592;DHT22;24356;48.460;11.450;2022-11-15T06:26:55;1.30;92.80
38592;DHT22;24356;48.460;11.450;2022-11-15T06:29:21;1.30;92.80
38592;DHT22;24356;48.460;11.450;2022-11-15T06:31:46;1.20;92.80
38592;DHT22;24356;48.460;11.450;2022-11-15T06:34:12;1.20;92.80
38592;DHT22;24356;48.460;11.450;2022-11-15T06:36:38;1.20;92.80
38592;DHT22;24356;48.460;11.450;2022-11-15T06:39:04;1.20;92.80
38592;DHT22;24356;48.460;11.450;2022-11-15T06:41:30;1.20;92.80
38592;DHT22;24356;48.460;11.450;2022-11-15T06:43:56;1.20;92.80
38592;DHT22;24356;48.460;11.450;2022-11-15T06:46:22;1.20;92.90
38592;DHT22;24356;48.460;11.450;2022-11-15T06:48:51;1.20;92.80
38592;DHT22;24356;48.460;11.450;2022-11-15T06:51:17;1.20;92.80
38592;DHT22;24356;48.460;11.450;2022-11-15T06:53:42;1.20;92.70
38592;DHT22;24356;48.460;11.450;2022-11-15T06:56:08;1.20;92.80
38592;DHT22;24356;48.460;11.450;2022-11-15T06:58:34;1.20;92.80
38592;DHT22;24356;48.460;11.450;2022-11-15T07:01:02;1.20;92.80
38592;DHT22;24356;48.460;11.450;2022-11-15T07:03:28;1.20;92.80
38592;DHT22;24356;48.460;11.450;2022-11-15T07:05:56;1.20;92.90
38592;DHT22;24356;48.460;11.450;2022-11-15T07:08:23;1.30;92.80
38592;DHT22;24356;48.460;11.450;2022-11-15T07:10:50;1.30;92.70
38592;DHT22;24356;48.460;11.450;2022-11-15T07:13:16;1.30;92.70
38592;DHT22;24356;48.460;11.450;2022-11-15T07:15:41;1.30;92.70
38592;DHT22;24356;48.460;11.450;2022-11-15T07:18:07;1.30;92.80
38592;DHT22;24356;48.460;11.450;2022-11-15T07:20:32;1.30;92.70
38592;DHT22;24356;48.460;11.450;2022-11-15T07:23:03;1.30;92.70
38592;DHT22;24356;48.460;11.450;2022-11-15T07:25:29;1.40;92.70
38592;DHT22;24356;48.460;11.450;2022-11-15T07:27:59;1.40;92.70
38592;DHT22;24356;48.460;11.450;2022-11-15T07:30:25;1.40;92.60
38592;DHT22;24356;48.460;11.450;2022-11-15T07:32:59;1.40;92.60
38592;DHT22;24356;48.460;11.450;2022-11-15T07:35:25;1.50;92.60
38592;DHT22;24356;48.460;11.450;2022-11-15T07:37:59;1.50;92.50
38592;DHT22;24356;48.460;11.450;2022-11-15T07:40:26;1.50;92.60
38592;DHT22;24356;48.460;11.450;2022-11-15T07:42:58;1.60;92.60
38592;DHT22;24356;48.460;11.450;2022-11-15T07:45:24;1.60;92.60
38592;DHT22;24356;48.460;11.450;2022-11-15T07:47:52;1.70;92.60
38592;DHT22;24356;48.460;11.450;2022-11-15T07:50:17;1.70;92.60
38592;DHT22;24356;48.460;11.450;2022-11-15T07:55:17;1.80;92.70
38592;DHT22;24356;48.460;11.450;2022-11-15T07:57:43;1.90;92.60
38592;DHT22;24356;48.460;11.450;2022-11-15T08:00:09;2.10;92.50
38592;DHT22;24356;48.460;11.450;2022-11-15T08:02:35;2.30;91.80
38592;DHT22;24356;48.460;11.450;2022-11-15T08:05:00;2.60;91.00
38592;DHT22;24356;48.460;11.450;2022-11-15T08:07:29;2.90;89.90
38592;DHT22;24356;48.460;11.450;2022-11-15T08:09:55;3.30;88.90
38592;DHT22;24356;48.460;11.450;2022-11-15T08:12:22;3.60;87.80
38592;DHT22;24356;48.460;11.450;2022-11-15T08:14:47;3.90;86.80
38592;DHT22;24356;48.460;11.450;2022-11-15T08:17:13;4.20;86.00
38592;DHT22;24356;48.460;11.450;2022-11-15T08:19:39;4.50;85.40
38592;DHT22;24356;48.460;11.450;2022-11-15T08:22:05;4.80;85.00
38592;DHT22;24356;48.460;11.450;2022-11-15T08:24:31;5.00;84.60
38592;DHT22;24356;48.460;11.450;2022-11-15T08:26:58;5.10;84.00
38592;DHT22;24356;48.460;11.450;2022-11-15T08:29:23;5.30;83.70
38592;DHT22;24356;48.460;11.450;2022-11-15T08:31:49;5.50;83.20
38592;DHT22;24356;48.460;11.450;2022-11-15T08:34:15;5.60;83.20
38592;DHT22;24356;48.460;11.450;2022-11-15T08:36:41;5.80;82.30
38592;DHT22;24356;48.460;11.450;2022-11-15T08:39:10;6.00;82.30
38592;DHT22;24356;48.460;11.450;2022-11-15T08:41:38;6.30;81.50
38592;DHT22;24356;48.460;11.450;2022-11-15T08:44:03;6.50;81.20
38592;DHT22;24356;48.460;11.450;2022-11-15T08:46:29;6.60;80.70
38592;DHT22;24356;48.460;11.450;2022-11-15T08:48:57;6.80;80.50
38592;DHT22;24356;48.460;11.450;2022-11-15T08:51:24;7.00;80.10
38592;DHT22;24356;48.460;11.450;2022-11-15T08:53:49;7.10;80.00
38592;DHT22;24356;48.460;11.450;2022-11-15T08:56:15;7.20;79.50
38592;DHT22;24356;48.460;11.450;2022-11-15T08:58:41;7.30;79.60
38592;DHT22;24356;48.460;11.450;2022-11-15T09:01:15;7.40;79.00
38592;DHT22;24356;48.460;11.450;2022-11-15T09:03:41;7.50;78.90
38592;DHT22;24356;48.460;11.450;2022-11-15T09:06:07;7.60;78.40
38592;DHT22;24356;48.460;11.450;2022-11-15T09:08:32;7.60;78.30
38592;DHT22;24356;48.460;11.450;2022-11-15T09:10:58;7.70;78.40
38592;DHT22;24356;48.460;11.450;2022-11-15T09:13:23;7.70;78.10
38592;DHT22;24356;48.460;11.450;2022-11-15T09:15:49;7.80;77.90
38592;DHT22;24356;48.460;11.450;2022-11-15T09:18:16;7.80;77.80
38592;DHT22;24356;48.460;11.450;2022-11-15T09:20:41;7.90;77.90
38592;DHT22;24356;48.460;11.450;2022-11-15T09:23:07;7.90;77.90
38592;DHT22;24356;48.460;11.450;2022-11-15T09:25:32;8.00;77.80
38592;DHT22;24356;48.460;11.450;2022-11-15T09:27:58;8.00;77.80
38592;DHT22;24356;48.460;11.450;2022-11-15T09:30:24;7.90;78.00
38592;DHT22;24356;48.460;11.450;2022-11-15T09:32:50;7.80;78.20
38592;DHT22;24356;48.460;11.450;2022-11-15T09:35:16;7.60;78.80
38592;DHT22;24356;48.460;11.450;2022-11-15T09:37:42;7.40;79.40
38592;DHT22;24356;48.460;11.450;2022-11-15T09:40:15;7.20;80.00
38592;DHT22;24356;48.460;11.450;2022-11-15T09:42:52;7.00;80.80
38592;DHT22;24356;48.460;11.450;2022-11-15T09:45:37;6.80;81.30
38592;DHT22;24356;48.460;11.450;2022-11-15T09:50:59;6.50;82.50
38592;DHT22;24356;48.460;11.450;2022-11-15T09:53:29;6.50;82.90
38592;DHT22;24356;48.460;11.450;2022-11-15T09:56:02;6.40;83.10
38592;DHT22;24356;48.460;11.450;2022-11-15T10:04:22;6.30;83.90
38592;DHT22;24356;48.460;11.450;2022-11-15T10:12:47;6.30;84.20
38592;DHT22;24356;48.460;11.450;2022-11-15T10:15:17;6.30;84.20
38592;DHT22;24356;48.460;11.450;2022-11-15T10:18:13;6.30;84.40
38592;DHT22;24356;48.460;11.450;2022-11-15T10:20:50;6.30;84.50
38592;DHT22;24356;48.460;11.450;2022-11-15T10:23:19;6.30;84.70
38592;DHT22;24356;48.460;11.450;2022-11-15T10:25:46;6.30;84.70
38592;DHT22;24356;48.460;11.450;2022-11-15T10:28:21;6.30;84.60
38592;DHT22;24356;48.460;11.450;2022-11-15T10:30:51;6.30;84.60
38592;DHT22;24356;48.460;11.450;2022-11-15T10:33:35;6.30;84.70
38592;DHT22;24356;48.460;11.450;2022-11-15T10:36:23;6.40;84.80
38592;DHT22;24356;48.460;11.450;2022-11-15T10:46:39;6.40;84.90
38592;DHT22;24356;48.460;11.450;2022-11-15T10:49:29;6.50;85.10
38592;DHT22;24356;48.460;11.450;2022-11-15T10:52:01;6.50;85.00
38592;DHT22;24356;48.460;11.450;2022-11-15T10:54:35;6.50;85.00
38592;DHT22;24356;48.460;11.450;2022-11-15T10:57:07;6.50;85.00
38592;DHT22;24356;48.460;11.450;2022-11-15T10:59:36;6.50;84.90
38592;DHT22;24356;48.460;11.450;2022-11-15T11:02:02;6.60;85.00
38592;DHT22;24356;48.460;11.450;2022-11-15T11:04:51;6.60;85.00
38592;DHT22;24356;48.460;11.450;2022-11-15T11:07:23;6.60;85.00
38592;DHT22;24356;48.460;11.450;2022-11-15T11:09:57;6.70;85.10
38592;DHT22;24356;48.460;11.450;2022-11-15T11:12:33;6.70;84.90
38592;DHT22;24356;48.460;11.450;2022-11-15T11:15:10;6.70;85.10
38592;DHT22;24356;48.460;11.450;2022-11-15T11:20:44;6.90;84.90
38592;DHT22;24356;48.460;11.450;2022-11-15T11:36:59;7.30;84.40
38592;DHT22;24356;48.460;11.450;2022-11-15T11:39:58;7.40;84.10
38592;DHT22;24356;48.460;11.450;2022-11-15T11:47:51;7.70;83.50
38592;DHT22;24356;48.460;11.450;2022-11-15T11:50:23;7.80;83.50
38592;DHT22;24356;48.460;11.450;2022-11-15T11:58:16;8.10;83.30
38592;DHT22;24356;48.460;11.450;2022-11-15T12:06:23;8.30;82.90
38592;DHT22;24356;48.460;11.450;2022-11-15T12:14:46;8.60;82.30
38592;DHT22;24356;48.460;11.450;2022-11-15T12:17:13;8.60;82.40
38592;DHT22;24356;48.460;11.450;2022-11-15T12:19:41;8.70;82.20
38592;DHT22;24356;48.460;11.450;2022-11-15T12:22:19;8.80;82.40
38592;DHT22;24356;48.460;11.450;2022-11-15T12:30:14;9.00;81.80
38592;DHT22;24356;48.460;11.450;2022-11-15T12:32:53;9.00;82.00
38592;DHT22;24356;48.460;11.450;2022-11-15T12:35:40;9.00;82.00
38592;DHT22;24356;48.460;11.450;2022-11-15T12:38:10;9.10;82.00
38592;DHT22;24356;48.460;11.450;2022-11-15T12:40:38;9.10;82.00
38592;DHT22;24356;48.460;11.450;2022-11-15T12:45:41;9.20;82.00
38592;DHT22;24356;48.460;11.450;2022-11-15T12:53:26;9.40;82.10
38592;DHT22;24356;48.460;11.450;2022-11-15T12:58:57;9.50;81.80
38592;DHT22;24356;48.460;11.450;2022-11-15T13:04:24;9.70;81.50
38592;DHT22;24356;48.460;11.450;2022-11-15T13:06:57;9.70;81.50
38592;DHT22;24356;48.460;11.450;2022-11-15T13:16:59;9.90;81.10
38592;DHT22;24356;48.460;11.450;2022-11-15T13:19:24;10.00;80.90
38592;DHT22;24356;48.460;11.450;2022-11-15T13:21:51;10.00;80.80
38592;DHT22;24356;48.460;11.450;2022-11-15T13:24:38;10.10;80.60
38592;DHT22;24356;48.460;11.450;2022-11-15T13:27:15;10.20;80.50
38592;DHT22;24356;48.460;11.450;2022-11-15T13:29:43;10.20;80.50
38592;DHT22;24356;48.460;11.450;2022-11-15T13:32:14;10.30;80.50
38592;DHT22;24356;48.460;11.450;2022-11-15T13:34:44;10.30;80.40
38592;DHT22;24356;48.460;11.450;2022-11-15T13:39:48;10.40;80.30
38592;DHT22;24356;48.460;11.450;2022-11-15T13:42:20;10.50;80.00
38592;DHT22;24356;48.460;11.450;2022-11-15T13:45:00;10.50;79.90
38592;DHT22;24356;48.460;11.450;2022-11-15T13:47:28;10.60;79.80
38592;DHT22;24356;48.460;11.450;2022-11-15T13:49:57;10.60;79.60
38592;DHT22;24356;48.460;11.450;2022-11-15T13:52:31;10.60;79.50
38592;DHT22;24356;48.460;11.450;2022-11-15T13:55:04;10.60;79.40
38592;DHT22;24356;48.460;11.450;2022-11-15T13:57:48;10.60;79.40
38592;DHT22;24356;48.460;11.450;2022-11-15T14:00:35;10.50;79.30
38592;DHT22;24356;48.460;11.450;2022-11-15T14:05:41;10.40;79.20
38592;DHT22;24356;48.460;11.450;2022-11-15T14:10:44;10.30;79.30
38592;DHT22;24356;48.460;11.450;2022-11-15T14:13:26;10.20;79.40
38592;DHT22;24356;48.460;11.450;2022-11-15T14:15:52;10.20;79.60
38592;DHT22;24356;48.460;11.450;2022-11-15T14:18:47;10.20;79.70
38592;DHT22;24356;48.460;11.450;2022-11-15T14:21:13;10.10;79.70
38592;DHT22;24356;48.460;11.450;2022-11-15T14:23:40;10.10;79.80
38592;DHT22;24356;48.460;11.450;2022-11-15T14:26:10;10.00;79.90
38592;DHT22;24356;48.460;11.450;2022-11-15T14:28:36;10.00;80.00
38592;DHT22;24356;48.460;11.450;2022-11-15T14:31:11;9.90;80.00
38592;DHT22;24356;48.460;11.450;2022-11-15T14:33:38;9.90;80.20
38592;DHT22;24356;48.460;11.450;2022-11-15T14:36:10;9.80;80.20
38592;DHT22;24356;48.460;11.450;2022-11-15T14:38:36;9.80;80.40
38592;DHT22;24356;48.460;11.450;2022-11-15T14:41:02;9.70;80.60
38592;DHT22;24356;48.460;11.450;2022-11-15T14:43:27;9.60;80.70
38592;DHT22;24356;48.460;11.450;2022-11-15T14:45:53;9.60;81.00
38592;DHT22;24356;48.460;11.450;2022-11-15T14:48:19;9.50;80.90
38592;DHT22;24356;48.460;11.450;2022-11-15T14:50:45;9.40;81.00
38592;DHT22;24356;48.460;11.450;2022-11-15T14:53:17;9.30;81.30
38592;DHT22;24356;48.460;11.450;2022-11-15T14:55:46;9.20;81.40
38592;DHT22;24356;48.460;11.450;2022-11-15T14:58:12;9.10;81.30
38592;DHT22;24356;48.460;11.450;2022-11-15T15:00:40;9.10;81.30
38592;DHT22;24356;48.460;11.450;2022-11-15T15:03:07;9.00;81.80
38592;DHT22;24356;48.460;11.450;2022-11-15T15:05:39;8.90;81.40
38592;DHT22;24356;48.460;11.450;2022-11-15T15:08:05;8.80;81.50
38592;DHT22;24356;48.460;11.450;2022-11-15T15:10:37;8.70;81.40
38592;DHT22;24356;48.460;11.450;2022-11-15T15:13:04;8.60;81.60
38592;DHT22;24356;48.460;11.450;2022-11-15T15:15:34;8.50;81.60
38592;DHT22;24356;48.460;11.450;2022-11-15T15:18:00;8.50;81.90
38592;DHT22;24356;48.460;11.450;2022-11-15T15:20:27;8.40;82.20
38592;DHT22;24356;48.460;11.450;2022-11-15T15:22:54;8.30;82.10
38592;DHT22;24356;48.460;11.450;2022-11-15T15:25:32;8.10;82.00
38592;DHT22;24356;48.460;11.450;2022-11-15T15:27:58;8.00;82.20
38592;DHT22;24356;48.460;11.450;2022-11-15T15:30:27;7.90;82.60
38592;DHT22;24356;48.460;11.450;2022-11-15T15:32:53;7.80;82.80
38592;DHT22;24356;48.460;11.450;2022-11-15T15:35:19;7.70;83.30
38592;DHT22;24356;48.460;11.450;2022-11-15T15:37:46;7.70;83.60
38592;DHT22;24356;48.460;11.450;2022-11-15T15:40:23;7.60;83.70
38592;DHT22;24356;48.460;11.450;2022-11-15T15:42:49;7.50;83.90
38592;DHT22;24356;48.460;11.450;2022-11-15T15:45:16;7.40;84.30
38592;DHT22;24356;48.460;11.450;2022-11-15T15:47:44;7.30;86.10
38592;DHT22;24356;48.460;11.450;2022-11-15T15:50:29;7.20;86.50
38592;DHT22;24356;48.460;11.450;2022-11-15T15:52:57;7.10;86.60
38592;DHT22;24356;48.460;11.450;2022-11-15T15:55:23;7.10;86.40
38592;DHT22;24356;48.460;11.450;2022-11-15T15:57:49;7.00;86.60
38592;DHT22;24356;48.460;11.450;2022-11-15T16:00:16;6.90;86.90
38592;DHT22;24356;48.460;11.450;2022-11-15T16:02:42;6.90;86.70
38592;DHT22;24356;48.460;11.450;2022-11-15T16:05:08;6.80;87.30
38592;DHT22;24356;48.460;11.450;2022-11-15T16:07:34;6.80;87.30
38592;DHT22;24356;48.460;11.450;2022-11-15T16:10:00;6.80;87.50
38592;DHT22;24356;48.460;11.450;2022-11-15T16:12:27;6.70;87.70
38592;DHT22;24356;48.460;11.450;2022-11-15T16:14:53;6.60;87.90
38592;DHT22;24356;48.460;11.450;2022-11-15T16:17:22;6.50;88.20
38592;DHT22;24356;48.460;11.450;2022-11-15T16:19:48;6.50;88.40
38592;DHT22;24356;48.460;11.450;2022-11-15T16:22:13;6.40;88.40
38592;DHT22;24356;48.460;11.450;2022-11-15T16:24:39;6.40;88.30
38592;DHT22;24356;48.460;11.450;2022-11-15T16:27:05;6.40;88.40
38592;DHT22;24356;48.460;11.450;2022-11-15T16:29:30;6.40;88.30
38592;DHT22;24356;48.460;11.450;2022-11-15T16:31:57;6.30;88.30
38592;DHT22;24356;48.460;11.450;2022-11-15T16:34:23;6.20;88.50
38592;DHT22;24356;48.460;11.450;2022-11-15T16:36:50;6.10;88.70
38592;DHT22;24356;48.460;11.450;2022-11-15T16:39:16;6.10;88.70
38592;DHT22;24356;48.460;11.450;2022-11-15T16:41:43;6.00;88.90
38592;DHT22;24356;48.460;11.450;2022-11-15T16:44:12;6.00;89.00
38592;DHT22;24356;48.460;11.450;2022-11-15T16:46:41;5.90;89.00
38592;DHT22;24356;48.460;11.450;2022-11-15T16:49:13;5.90;88.90
38592;DHT22;24356;48.460;11.450;2022-11-15T16:51:40;5.90;89.00
38592;DHT22;24356;48.460;11.450;2022-11-15T16:54:06;5.90;89.10
38592;DHT22;24356;48.460;11.450;2022-11-15T16:56:33;5.80;89.00
38592;DHT22;24356;48.460;11.450;2022-11-15T16:58:59;5.80;89.10
38592;DHT22;24356;48.460;11.450;2022-11-15T17:01:31;5.80;89.10
38592;DHT22;24356;48.460;11.450;2022-11-15T17:03:57;5.80;89.00
38592;DHT22;24356;48.460;11.450;2022-11-15T17:06:24;5.80;89.10
38592;DHT22;24356;48.460;11.450;2022-11-15T17:08:50;5.80;89.20
38592;DHT22;24356;48.460;11.450;2022-11-15T17:11:20;5.70;89.30
38592;DHT22;24356;48.460;11.450;2022-11-15T17:13:46;5.70;88.70
38592;DHT22;24356;48.460;11.450;2022-11-15T17:16:15;5.70;89.30
38592;DHT22;24356;48.460;11.450;2022-11-15T17:18:42;5.70;89.00
38592;DHT22;24356;48.460;11.450;2022-11-15T17:21:14;5.70;89.40
38592;DHT22;24356;48.460;11.450;2022-11-15T17:23:41;5.70;89.30
38592;DHT22;24356;48.460;11.450;2022-11-15T17:26:08;5.60;89.00
38592;DHT22;24356;48.460;11.450;2022-11-15T17:28:36;5.60;89.50
38592;DHT22;24356;48.460;11.450;2022-11-15T17:31:09;5.60;89.40
38592;DHT22;24356;48.460;11.450;2022-11-15T17:33:36;5.60;89.40
38592;DHT22;24356;48.460;11.450;2022-11-15T17:36:04;5.60;89.30
38592;DHT22;24356;48.460;11.450;2022-11-15T17:38:30;5.60;89.50
38592;DHT22;24356;48.460;11.450;2022-11-15T17:43:31;5.50;89.50
38592;DHT22;24356;48.460;11.450;2022-11-15T17:45:58;5.50;89.50
38592;DHT22;24356;48.460;11.450;2022-11-15T17:48:24;5.50;89.30
38592;DHT22;24356;48.460;11.450;2022-11-15T17:51:04;5.40;89.30
38592;DHT22;24356;48.460;11.450;2022-11-15T17:53:38;5.40;89.60